createdAt,value
2023-06-17T00:02:00.147Z,23.23
2023-06-17T00:04:28.000Z,22.94
2023-06-17T00:06:55.196Z,22.62
2023-06-17T00:09:22.697Z,22.98
2023-06-17T00:11:50.336Z,23.47
2023-06-17T00:14:18.272Z,23.47
2023-06-17T00:16:45.368Z,23.22
2023-06-17T00:19:17.196Z,22.89
2023-06-17T00:21:45.410Z,22.53
2023-06-17T00:24:15.645Z,22.19
2023-06-17T00:26:43.057Z,22.66
2023-06-17T00:29:10.718Z,23.16
2023-06-17T00:31:38.280Z,23.16
2023-06-17T00:34:05.604Z,22.92
2023-06-17T00:36:32.889Z,22.64
2023-06-17T00:39:00.019Z,22.33
2023-06-17T00:41:27.336Z,22.73
2023-06-17T00:43:54.437Z,23.22
2023-06-17T00:46:33.779Z,23.23
2023-06-17T00:49:02.141Z,22.97
2023-06-17T00:51:29.646Z,22.68
2023-06-17T00:53:57.163Z,22.35
2023-06-17T00:56:26.490Z,22.74
2023-06-17T00:58:54.730Z,23.23
2023-06-17T01:01:21.862Z,23.19
2023-06-17T01:03:51.190Z,22.93
2023-06-17T01:06:48.453Z,22.63
2023-06-17T01:09:17.344Z,22.29
2023-06-17T01:11:44.874Z,22.84
2023-06-17T01:14:12.023Z,23.23
2023-06-17T01:16:44.045Z,23.16
2023-06-17T01:19:19.706Z,22.89
2023-06-17T01:21:50.483Z,22.57
2023-06-17T01:24:28.511Z,22.25
2023-06-17T01:26:57.719Z,22.73
2023-06-17T01:29:25.285Z,23.19
2023-06-17T01:31:53.002Z,23.15
2023-06-17T01:34:21.164Z,22.90
2023-06-17T01:36:48.468Z,22.60
2023-06-17T01:39:17.198Z,22.28
2023-06-17T01:41:47.654Z,22.68
2023-06-17T01:44:14.713Z,23.18
2023-06-17T01:46:43.199Z,23.16
2023-06-17T01:49:10.307Z,22.91
2023-06-17T01:51:39.398Z,22.61
2023-06-17T01:54:07.319Z,22.27
2023-06-17T01:56:34.687Z,22.63
2023-06-17T01:59:01.986Z,23.10
2023-06-17T02:01:29.908Z,23.08
2023-06-17T02:03:57.699Z,22.83
2023-06-17T02:06:25.214Z,22.52
2023-06-17T02:08:54.081Z,22.19
2023-06-17T02:11:21.519Z,22.56
2023-06-17T02:13:48.657Z,23.03
2023-06-17T02:16:16.211Z,23.00
2023-06-17T02:18:43.705Z,22.76
2023-06-17T02:21:10.966Z,22.47
2023-06-17T02:23:38.148Z,22.16
2023-06-17T02:26:05.230Z,22.54
2023-06-17T02:28:33.665Z,23.00
2023-06-17T02:31:00.774Z,22.98
2023-06-17T02:33:29.100Z,22.73
2023-06-17T02:35:56.286Z,22.43
2023-06-17T02:38:25.821Z,22.10
2023-06-17T02:40:53.828Z,22.49
2023-06-17T02:43:21.143Z,22.95
2023-06-17T02:45:48.200Z,22.92
2023-06-17T02:48:15.247Z,22.70
2023-06-17T02:50:43.073Z,22.39
2023-06-17T02:53:12.136Z,22.07
2023-06-17T02:55:39.452Z,22.45
2023-06-17T02:58:16.908Z,22.93
2023-06-17T03:00:46.774Z,22.89
2023-06-17T03:03:14.384Z,22.63
2023-06-17T03:05:44.832Z,22.34
2023-06-17T03:08:12.244Z,22.00
2023-06-17T03:10:39.472Z,22.33
2023-06-17T03:13:11.413Z,22.85
2023-06-17T03:15:42.284Z,22.85
2023-06-17T03:18:10.221Z,22.59
2023-06-17T03:20:39.934Z,22.29
2023-06-17T03:23:10.851Z,21.95
2023-06-17T03:25:39.424Z,22.34
2023-06-17T03:28:07.201Z,22.80
2023-06-17T03:30:35.691Z,22.80
2023-06-17T03:33:03.221Z,22.57
2023-06-17T03:35:30.889Z,22.27
2023-06-17T03:37:58.392Z,21.94
2023-06-17T03:40:26.723Z,22.31
2023-06-17T03:42:55.581Z,22.80
2023-06-17T03:45:23.309Z,22.80
2023-06-17T03:47:51.276Z,22.55
2023-06-17T03:50:18.517Z,22.23
2023-06-17T03:52:47.058Z,21.88
2023-06-17T03:55:14.503Z,22.24
2023-06-17T03:57:41.829Z,22.71
2023-06-17T04:00:09.461Z,22.69
2023-06-17T04:02:47.057Z,22.44
2023-06-17T04:05:21.688Z,22.14
2023-06-17T04:07:50.232Z,21.83
2023-06-17T04:10:17.691Z,22.20
2023-06-17T04:12:44.995Z,22.66
2023-06-17T04:15:13.044Z,22.63
2023-06-17T04:17:40.639Z,22.38
2023-06-17T04:20:12.496Z,22.06
2023-06-17T04:22:41.293Z,21.71
2023-06-17T04:25:13.006Z,22.11
2023-06-17T04:27:45.710Z,22.60
2023-06-17T04:30:16.408Z,22.59
2023-06-17T04:32:45.172Z,22.33
2023-06-17T04:35:14.526Z,22.04
2023-06-17T04:37:55.293Z,21.75
2023-06-17T04:40:24.560Z,22.27
2023-06-17T04:42:52.314Z,22.74
2023-06-17T04:45:21.001Z,22.74
2023-06-17T04:47:52.922Z,22.49
2023-06-17T04:50:21.772Z,22.20
2023-06-17T04:52:49.207Z,21.88
2023-06-17T04:55:19.984Z,22.30
2023-06-17T04:57:47.327Z,22.81
2023-06-17T05:00:21.578Z,22.84
2023-06-17T05:02:51.468Z,22.63
2023-06-17T05:05:19.090Z,22.37
2023-06-17T05:07:46.570Z,22.08
2023-06-17T05:10:15.473Z,22.48
2023-06-17T05:12:43.524Z,22.95
2023-06-17T05:15:11.426Z,22.95
2023-06-17T05:17:41.414Z,22.72
2023-06-17T05:20:10.418Z,22.43
2023-06-17T05:22:39.103Z,22.14
2023-06-17T05:25:06.726Z,21.86
2023-06-17T05:27:34.633Z,22.36
2023-06-17T05:30:02.219Z,22.92
2023-06-17T05:32:30.357Z,22.94
2023-06-17T05:34:57.346Z,22.71
2023-06-17T05:37:24.628Z,22.45
2023-06-17T05:39:51.875Z,22.17
2023-06-17T05:42:18.890Z,21.90
2023-06-17T05:44:47.474Z,22.38
2023-06-17T05:47:14.651Z,22.92
2023-06-17T05:49:42.788Z,22.93
2023-06-17T05:52:12.357Z,22.72
2023-06-17T05:54:40.447Z,22.45
2023-06-17T05:57:07.887Z,22.17
2023-06-17T05:59:36.060Z,22.56
2023-06-17T06:02:03.360Z,23.05
2023-06-17T06:04:31.910Z,23.07
2023-06-17T06:06:59.348Z,22.86
2023-06-17T06:09:27.360Z,22.60
2023-06-17T06:11:54.862Z,22.28
2023-06-17T06:14:22.418Z,22.65
2023-06-17T06:16:49.940Z,23.20
2023-06-17T06:19:17.034Z,23.22
2023-06-17T06:21:44.275Z,23.03
2023-06-17T06:24:11.699Z,22.77
2023-06-17T06:26:39.306Z,22.49
2023-06-17T06:29:08.593Z,22.89
2023-06-17T06:31:37.979Z,23.38
2023-06-17T06:34:05.027Z,23.35
2023-06-17T06:36:32.215Z,23.14
2023-06-17T06:38:59.378Z,22.86
2023-06-17T06:41:26.907Z,22.56
2023-06-17T06:44:02.600Z,22.28
2023-06-17T06:46:32.831Z,22.84
2023-06-17T06:49:00.435Z,23.40
2023-06-17T06:51:28.619Z,23.38
2023-06-17T06:53:56.373Z,23.12
2023-06-17T06:56:23.666Z,22.83
2023-06-17T06:58:51.143Z,22.57
2023-06-17T07:01:18.615Z,22.31
2023-06-17T07:03:46.470Z,22.83
2023-06-17T07:06:14.975Z,23.38
2023-06-17T07:08:42.757Z,23.42
2023-06-17T07:11:10.099Z,23.23
2023-06-17T07:13:37.538Z,22.98
2023-06-17T07:16:05.957Z,22.72
2023-06-17T07:18:33.329Z,22.44
2023-06-17T07:21:00.753Z,22.92
2023-06-17T07:23:27.935Z,23.46
2023-06-17T07:25:56.189Z,23.46
2023-06-17T07:28:26.027Z,23.26
2023-06-17T07:30:54.366Z,22.98
2023-06-17T07:33:27.909Z,22.69
2023-06-17T07:35:55.001Z,22.44
2023-06-17T07:38:24.038Z,22.96
2023-06-17T07:40:52.304Z,23.58
2023-06-17T07:43:20.047Z,23.64
2023-06-17T07:45:47.297Z,23.45
2023-06-17T07:48:14.604Z,23.22
2023-06-17T07:50:41.635Z,22.99
2023-06-17T07:53:08.937Z,22.74
2023-06-17T07:55:37.653Z,23.31
2023-06-17T07:58:04.826Z,23.89
2023-06-17T08:00:32.036Z,23.96
2023-06-17T08:02:59.701Z,23.82
2023-06-17T08:05:26.913Z,23.57
2023-06-17T08:07:55.034Z,23.26
2023-06-17T08:10:22.774Z,22.95
2023-06-17T08:12:50.456Z,23.38
2023-06-17T08:15:17.765Z,23.88
2023-06-17T08:17:45.999Z,23.88
2023-06-17T08:20:14.390Z,23.71
2023-06-17T08:22:41.722Z,23.49
2023-06-17T08:25:09.522Z,23.26
2023-06-17T08:27:38.668Z,23.01
2023-06-17T08:30:07.611Z,23.54
2023-06-17T08:32:35.151Z,24.10
2023-06-17T08:35:08.063Z,24.14
2023-06-17T08:37:35.802Z,23.95
2023-06-17T08:40:05.597Z,23.71
2023-06-17T08:42:33.184Z,23.51
2023-06-17T08:45:00.906Z,23.25
2023-06-17T08:47:28.241Z,23.68
2023-06-17T08:49:58.584Z,24.21
2023-06-17T08:52:26.139Z,24.23
2023-06-17T08:54:54.518Z,24.01
2023-06-17T08:57:21.817Z,23.70
2023-06-17T08:59:49.018Z,23.40
2023-06-17T09:02:17.021Z,23.14
2023-06-17T09:04:44.143Z,23.61
2023-06-17T09:07:11.715Z,24.16
2023-06-17T09:09:38.919Z,24.23
2023-06-17T09:12:07.170Z,24.06
2023-06-17T09:14:34.625Z,23.81
2023-06-17T09:17:02.525Z,23.53
2023-06-17T09:19:33.195Z,23.24
2023-06-17T09:22:09.844Z,23.72
2023-06-17T09:24:42.138Z,24.28
2023-06-17T09:27:10.722Z,24.27
2023-06-17T09:29:40.065Z,24.04
2023-06-17T09:32:07.358Z,23.79
2023-06-17T09:34:34.536Z,23.54
2023-06-17T09:37:01.988Z,23.32
2023-06-17T09:39:34.737Z,23.82
2023-06-17T09:42:10.381Z,24.36
2023-06-17T09:44:38.783Z,24.41
2023-06-17T09:47:07.660Z,24.23
2023-06-17T09:49:35.319Z,23.98
2023-06-17T09:52:03.892Z,23.74
2023-06-17T09:54:31.488Z,23.44
2023-06-17T09:56:59.667Z,23.86
2023-06-17T09:59:27.801Z,24.39
2023-06-17T10:01:56.001Z,24.47
2023-06-17T10:04:23.169Z,24.29
2023-06-17T10:06:51.250Z,24.04
2023-06-17T10:09:18.392Z,23.80
2023-06-17T10:11:47.060Z,23.56
2023-06-17T10:14:20.731Z,24.04
2023-06-17T10:16:48.942Z,24.55
2023-06-17T10:19:19.504Z,24.52
2023-06-17T10:21:47.613Z,24.32
2023-06-17T10:24:15.341Z,24.09
2023-06-17T10:26:42.528Z,23.88
2023-06-17T10:29:11.913Z,23.68
2023-06-17T10:31:40.934Z,24.23
2023-06-17T10:34:21.372Z,24.84
2023-06-17T10:36:56.027Z,24.91
2023-06-17T10:39:23.806Z,24.72
2023-06-17T10:41:52.603Z,24.47
2023-06-17T10:44:31.481Z,24.22
2023-06-17T10:46:59.328Z,23.98
2023-06-17T10:49:26.543Z,24.55
2023-06-17T10:51:59.260Z,25.06
2023-06-17T10:54:28.381Z,25.15
2023-06-17T10:56:55.879Z,25.04
2023-06-17T10:59:26.910Z,24.78
2023-06-17T11:02:02.664Z,24.57
2023-06-17T11:04:34.097Z,24.35
2023-06-17T11:07:01.762Z,24.08
2023-06-17T11:09:29.617Z,24.66
2023-06-17T11:11:58.291Z,25.32
2023-06-17T11:14:27.839Z,25.47
2023-06-17T11:16:55.546Z,25.27
2023-06-17T11:19:23.173Z,25.01
2023-06-17T11:21:58.658Z,24.76
2023-06-17T11:24:26.757Z,24.53
2023-06-17T11:26:55.365Z,24.30
2023-06-17T11:29:22.637Z,24.89
2023-06-17T11:31:49.861Z,25.52
2023-06-17T11:34:17.223Z,25.63
2023-06-17T11:36:44.395Z,25.44
2023-06-17T11:39:11.602Z,25.14
2023-06-17T11:41:39.248Z,24.88
2023-06-17T11:44:06.814Z,24.71
2023-06-17T11:46:37.292Z,24.60
2023-06-17T11:49:07.106Z,25.25
2023-06-17T11:51:35.126Z,25.85
2023-06-17T11:54:05.132Z,25.90
2023-06-17T11:56:35.685Z,25.70
2023-06-17T11:59:04.340Z,25.54
2023-06-17T12:01:31.728Z,25.44
2023-06-17T12:03:58.890Z,25.40
2023-06-17T12:06:28.303Z,25.30
2023-06-17T12:08:57.315Z,25.91
2023-06-17T12:11:30.557Z,26.65
2023-06-17T12:13:59.062Z,26.91
2023-06-17T12:16:34.755Z,26.85
2023-06-17T12:19:02.899Z,26.68
2023-06-17T12:21:30.006Z,26.39
2023-06-17T12:23:57.171Z,26.19
2023-06-17T12:26:27.477Z,26.07
2023-06-17T12:28:55.465Z,25.90
2023-06-17T12:31:23.610Z,26.34
2023-06-17T12:33:51.588Z,26.83
2023-06-17T12:36:19.038Z,26.80
2023-06-17T12:38:46.386Z,26.56
2023-06-17T12:41:13.910Z,26.25
2023-06-17T12:43:42.112Z,25.97
2023-06-17T12:46:09.781Z,25.74
2023-06-17T12:48:37.059Z,25.52
2023-06-17T12:51:08.118Z,25.29
2023-06-17T12:53:35.573Z,25.16
2023-06-17T12:56:02.796Z,25.84
2023-06-17T12:58:30.342Z,26.49
2023-06-17T13:00:57.624Z,26.51
2023-06-17T13:03:24.869Z,26.30
2023-06-17T13:05:54.907Z,26.02
2023-06-17T13:08:22.221Z,25.75
2023-06-17T13:10:49.356Z,25.50
2023-06-17T13:13:17.384Z,25.28
2023-06-17T13:15:45.464Z,25.09
2023-06-17T13:18:14.110Z,25.58
2023-06-17T13:20:41.845Z,26.18
2023-06-17T13:23:09.166Z,26.33
2023-06-17T13:25:37.380Z,26.20
2023-06-17T13:28:04.524Z,26.01
2023-06-17T13:30:32.844Z,25.82
2023-06-17T13:33:00.473Z,25.66
2023-06-17T13:35:27.602Z,25.51
2023-06-17T13:37:56.199Z,25.37
2023-06-17T13:40:24.004Z,25.24
2023-06-17T13:42:51.196Z,25.13
2023-06-17T13:45:19.176Z,25.88
2023-06-17T13:47:50.066Z,26.63
2023-06-17T13:50:17.273Z,26.85
2023-06-17T13:52:44.856Z,26.70
2023-06-17T13:55:12.285Z,26.43
2023-06-17T13:57:39.262Z,26.15
2023-06-17T14:00:07.536Z,25.84
2023-06-17T14:02:35.104Z,25.57
2023-06-17T14:05:04.628Z,25.34
2023-06-17T14:07:32.478Z,25.13
2023-06-17T14:09:59.986Z,24.91
2023-06-17T14:12:27.360Z,25.35
2023-06-17T14:14:55.326Z,25.88
2023-06-17T14:17:23.879Z,25.93
2023-06-17T14:19:51.246Z,25.74
2023-06-17T14:22:18.732Z,25.44
2023-06-17T14:24:46.998Z,25.16
2023-06-17T14:27:39.558Z,24.87
2023-06-17T14:30:14.212Z,24.62
2023-06-17T14:32:46.068Z,24.45
2023-06-17T14:35:14.814Z,24.25
2023-06-17T14:37:42.835Z,24.74
2023-06-17T14:40:10.847Z,25.27
2023-06-17T14:42:39.699Z,25.26
2023-06-17T14:45:11.679Z,25.05
2023-06-17T14:47:40.140Z,24.74
2023-06-17T14:50:08.199Z,24.46
2023-06-17T14:52:36.335Z,24.24
2023-06-17T14:55:04.454Z,24.02
2023-06-17T14:57:33.681Z,23.79
2023-06-17T15:00:01.896Z,24.32
2023-06-17T15:03:03.411Z,24.91
2023-06-17T15:05:36.467Z,24.95
2023-06-17T15:08:05.239Z,24.73
2023-06-17T15:10:32.778Z,24.46
2023-06-17T15:12:59.913Z,24.25
2023-06-17T15:15:28.201Z,24.08
2023-06-17T15:17:55.394Z,23.88
2023-06-17T15:20:22.856Z,24.38
2023-06-17T15:22:50.333Z,24.94
2023-06-17T15:25:17.657Z,25.01
2023-06-17T15:27:45.084Z,24.86
2023-06-17T15:30:12.710Z,24.65
2023-06-17T15:32:41.165Z,24.43
2023-06-17T15:35:08.391Z,24.23
2023-06-17T15:37:37.380Z,24.01
2023-06-17T15:40:06.874Z,24.44
2023-06-17T15:42:34.071Z,24.93
2023-06-17T15:45:01.660Z,24.95
2023-06-17T15:47:29.427Z,24.77
2023-06-17T15:49:56.586Z,24.52
2023-06-17T15:52:25.516Z,24.27
2023-06-17T15:54:53.331Z,24.04
2023-06-17T15:57:20.627Z,23.79
2023-06-17T15:59:47.854Z,24.23
2023-06-17T16:02:15.823Z,24.77
2023-06-17T16:04:43.914Z,24.80
2023-06-17T16:07:12.310Z,24.59
2023-06-17T16:09:46.270Z,24.32
2023-06-17T16:12:13.797Z,24.02
2023-06-17T16:14:42.516Z,23.73
2023-06-17T16:17:10.697Z,23.44
2023-06-17T16:19:38.445Z,23.87
2023-06-17T16:22:07.158Z,24.38
2023-06-17T16:24:34.469Z,24.38
2023-06-17T16:27:01.846Z,24.16
2023-06-17T16:29:29.726Z,23.89
2023-06-17T16:31:57.083Z,23.63
2023-06-17T16:34:24.174Z,23.41
2023-06-17T16:36:51.657Z,23.19
2023-06-17T16:39:18.982Z,23.67
2023-06-17T16:41:46.678Z,24.23
2023-06-17T16:44:13.848Z,24.25
2023-06-17T16:46:41.630Z,24.01
2023-06-17T16:49:14.447Z,23.68
2023-06-17T16:51:41.459Z,23.38
2023-06-17T16:54:09.301Z,23.07
2023-06-17T16:56:36.717Z,23.38
2023-06-17T16:59:03.735Z,23.82
2023-06-17T17:01:31.540Z,23.77
2023-06-17T17:04:00.225Z,23.50
2023-06-17T17:06:27.460Z,23.20
2023-06-17T17:08:55.001Z,22.90
2023-06-17T17:11:22.255Z,22.57
2023-06-17T17:13:50.184Z,22.99
2023-06-17T17:16:18.418Z,23.43
2023-06-17T17:18:46.823Z,23.44
2023-06-17T17:21:14.148Z,23.23
2023-06-17T17:23:41.734Z,22.95
2023-06-17T17:26:10.309Z,22.67
2023-06-17T17:28:37.798Z,22.39
2023-06-17T17:31:04.944Z,22.87
2023-06-17T17:33:33.964Z,23.41
2023-06-17T17:36:01.677Z,23.45
2023-06-17T17:38:28.742Z,23.25
2023-06-17T17:40:55.987Z,22.95
2023-06-17T17:43:24.374Z,22.64
2023-06-17T17:45:52.293Z,22.37
2023-06-17T17:48:19.483Z,22.84
2023-06-17T17:50:47.484Z,23.37
2023-06-17T17:53:14.906Z,23.41
2023-06-17T17:55:42.387Z,23.21
2023-06-17T17:58:09.739Z,22.94
2023-06-17T18:00:37.408Z,22.67
2023-06-17T18:03:04.643Z,22.41
2023-06-17T18:05:32.034Z,22.86
2023-06-17T18:07:59.548Z,23.39
2023-06-17T18:10:27.858Z,23.42
2023-06-17T18:12:55.083Z,23.20
2023-06-17T18:15:22.353Z,22.93
2023-06-17T18:17:49.801Z,22.63
2023-06-17T18:20:17.047Z,22.33
2023-06-17T18:22:44.223Z,22.79
2023-06-17T18:25:11.943Z,23.33
2023-06-17T18:27:42.415Z,23.35
2023-06-17T18:30:10.558Z,23.14
2023-06-17T18:32:37.984Z,22.86
2023-06-17T18:35:05.682Z,22.59
2023-06-17T18:37:32.812Z,22.31
2023-06-17T18:40:00.398Z,22.77
2023-06-17T18:42:27.856Z,23.28
2023-06-17T18:44:55.282Z,23.27
2023-06-17T18:47:22.815Z,23.02
2023-06-17T18:49:50.755Z,22.74
2023-06-17T18:52:19.386Z,22.44
2023-06-17T18:54:46.853Z,22.13
2023-06-17T18:57:14.920Z,22.56
2023-06-17T18:59:42.624Z,23.07
2023-06-17T19:02:09.970Z,23.08
2023-06-17T19:04:37.161Z,22.87
2023-06-17T19:07:04.974Z,22.57
2023-06-17T19:09:32.190Z,22.30
2023-06-17T19:12:01.136Z,22.03
2023-06-17T19:14:28.679Z,22.51
2023-06-17T19:16:56.548Z,23.06
2023-06-17T19:19:23.901Z,23.08
2023-06-17T19:21:51.146Z,22.85
2023-06-17T19:24:20.459Z,22.57
2023-06-17T19:26:47.881Z,22.28
2023-06-17T19:29:15.544Z,21.99
2023-06-17T19:31:42.664Z,22.43
2023-06-17T19:34:09.868Z,22.96
2023-06-17T19:36:37.765Z,22.98
2023-06-17T19:39:04.792Z,22.77
2023-06-17T19:41:32.050Z,22.49
2023-06-17T19:43:59.363Z,22.21
2023-06-17T19:46:26.826Z,21.92
2023-06-17T19:48:54.198Z,22.38
2023-06-17T19:51:21.676Z,22.91
2023-06-17T19:53:51.494Z,22.92
2023-06-17T19:56:19.687Z,22.66
2023-06-17T20:00:55.083Z,21.94
2023-06-17T20:03:22.438Z,21.82
2023-06-17T20:05:49.649Z,22.30
2023-06-17T20:08:17.035Z,22.86
2023-06-17T20:10:44.396Z,22.89
2023-06-17T20:13:11.862Z,22.65
2023-06-17T20:15:40.248Z,22.37
2023-06-17T20:18:08.856Z,22.10
2023-06-17T20:20:36.872Z,21.81
2023-06-17T20:23:03.912Z,22.27
2023-06-17T20:25:32.185Z,22.79
2023-06-17T20:27:59.514Z,22.80
2023-06-17T20:30:26.834Z,22.58
2023-06-17T20:32:54.122Z,22.29
2023-06-17T20:35:21.526Z,22.03
2023-06-17T20:37:49.411Z,21.75
2023-06-17T20:40:16.847Z,22.20
2023-06-17T20:42:44.190Z,22.73
2023-06-17T20:45:11.801Z,22.76
2023-06-17T20:47:39.312Z,22.53
2023-06-17T20:50:07.098Z,22.24
2023-06-17T20:52:34.441Z,21.96
2023-06-17T20:55:01.920Z,21.70
2023-06-17T20:57:29.449Z,22.18
2023-06-17T20:59:56.692Z,22.73
2023-06-17T21:02:23.902Z,22.77
2023-06-17T21:04:52.772Z,22.56
2023-06-17T21:07:20.131Z,22.32
2023-06-17T21:09:48.455Z,22.07
2023-06-17T21:12:16.038Z,21.81
2023-06-17T21:14:44.032Z,22.27
2023-06-17T21:17:11.290Z,22.79
2023-06-17T21:19:38.731Z,22.82
2023-06-17T21:22:06.393Z,22.58
2023-06-17T21:24:35.453Z,22.28
2023-06-17T21:27:03.316Z,21.99
2023-06-17T21:29:31.152Z,21.67
2023-06-17T21:31:58.459Z,22.13
2023-06-17T21:34:25.683Z,22.69
2023-06-17T21:36:53.058Z,22.71
2023-06-17T21:39:20.649Z,22.47
2023-06-17T21:41:47.863Z,22.19
2023-06-17T21:44:15.251Z,21.89
2023-06-17T21:46:42.525Z,21.58
2023-06-17T21:49:10.249Z,22.04
2023-06-17T21:51:37.528Z,22.55
2023-06-17T21:54:04.939Z,22.55
2023-06-17T21:56:32.480Z,22.32
2023-06-17T21:58:59.685Z,22.02
2023-06-17T22:01:27.244Z,21.69
2023-06-17T22:03:54.402Z,22.01
2023-06-17T22:06:21.727Z,22.46
2023-06-17T22:08:48.857Z,22.45
2023-06-17T22:11:16.253Z,22.21
2023-06-17T22:13:44.213Z,21.91
2023-06-17T22:16:12.661Z,21.59
2023-06-17T22:18:40.066Z,21.96
2023-06-17T22:21:07.428Z,22.45
2023-06-17T22:23:34.636Z,22.46
2023-06-17T22:26:01.808Z,22.25
2023-06-17T22:28:29.802Z,21.97
2023-06-17T22:30:56.955Z,21.65
2023-06-17T22:33:24.464Z,22.00
2023-06-17T22:35:51.557Z,22.45
2023-06-17T22:38:20.010Z,22.44
2023-06-17T22:40:47.300Z,22.20
2023-06-17T22:43:16.350Z,21.90
2023-06-17T22:45:43.418Z,21.57
2023-06-17T22:48:10.833Z,21.93
2023-06-17T22:50:38.018Z,22.39
2023-06-17T22:53:05.334Z,22.39
2023-06-17T22:55:32.786Z,22.17
2023-06-17T22:57:59.944Z,21.88
2023-06-17T23:00:27.804Z,21.56
2023-06-17T23:02:55.452Z,21.91
2023-06-17T23:05:23.457Z,22.40
2023-06-17T23:07:50.507Z,22.41
2023-06-17T23:10:17.767Z,22.19
2023-06-17T23:12:45.022Z,21.91
2023-06-17T23:15:12.336Z,21.63
2023-06-17T23:17:39.876Z,21.36
2023-06-17T23:20:10.251Z,21.88
2023-06-17T23:22:37.794Z,22.41
2023-06-17T23:25:07.847Z,22.43
2023-06-17T23:27:37.905Z,22.20
2023-06-17T23:30:06.213Z,21.92
2023-06-17T23:32:34.441Z,21.61
2023-06-17T23:35:01.849Z,21.97
2023-06-17T23:37:29.834Z,22.43
2023-06-17T23:39:57.049Z,22.41
2023-06-17T23:42:24.210Z,22.18
2023-06-17T23:44:52.217Z,21.88
2023-06-17T23:47:19.799Z,21.56
2023-06-17T23:49:47.268Z,21.91
2023-06-17T23:52:14.583Z,22.39
2023-06-17T23:54:42.035Z,22.40
2023-06-17T23:57:09.258Z,22.17
2023-06-17T23:59:36.784Z,21.89
